sensor_id;sensor_type;location;lat;lon;timestamp;pressure;altitude;pressure_sealevel;temperature
18713;BMP280;9485;49.386;8.674;2023-02-03T00:02:25;101702.16;;;10.73
18713;BMP280;9485;49.386;8.674;2023-02-03T00:07:47;101705.44;;;10.71
18713;BMP280;9485;49.386;8.674;2023-02-03T00:13:08;101711.09;;;10.71
18713;BMP280;9485;49.386;8.674;2023-02-03T00:18:29;101721.81;;;10.76
18713;BMP280;9485;49.386;8.674;2023-02-03T00:23:50;101711.28;;;10.77
18713;BMP280;9485;49.386;8.674;2023-02-03T00:29:13;101707.34;;;10.74
18713;BMP280;9485;49.386;8.674;2023-02-03T00:34:33;101710.03;;;10.78
18713;BMP280;9485;49.386;8.674;2023-02-03T00:39:55;101705.81;;;10.82
18713;BMP280;9485;49.386;8.674;2023-02-03T00:45:16;101690.72;;;10.85
18713;BMP280;9485;49.386;8.674;2023-02-03T00:50:36;101689.13;;;10.84
18713;BMP280;9485;49.386;8.674;2023-02-03T00:55:58;101687.44;;;10.87
18713;BMP280;9485;49.386;8.674;2023-02-03T01:01:19;101672.34;;;10.90
18713;BMP280;9485;49.386;8.674;2023-02-03T01:06:40;101679.25;;;10.89
18713;BMP280;9485;49.386;8.674;2023-02-03T01:12:03;101690.13;;;10.90
18713;BMP280;9485;49.386;8.674;2023-02-03T01:17:25;101709.44;;;10.92
18713;BMP280;9485;49.386;8.674;2023-02-03T01:22:46;101700.47;;;10.93
18713;BMP280;9485;49.386;8.674;2023-02-03T01:28:08;101685.09;;;10.94
18713;BMP280;9485;49.386;8.674;2023-02-03T01:33:28;101671.28;;;10.96
18713;BMP280;9485;49.386;8.674;2023-02-03T01:38:50;101641.28;;;10.99
18713;BMP280;9485;49.386;8.674;2023-02-03T01:44:45;101622.75;;;10.98
18713;BMP280;9485;49.386;8.674;2023-02-03T01:50:12;101632.63;;;10.93
18713;BMP280;9485;49.386;8.674;2023-02-03T01:55:40;101646.75;;;10.93
18713;BMP280;9485;49.386;8.674;2023-02-03T02:01:02;101637.66;;;10.89
18713;BMP280;9485;49.386;8.674;2023-02-03T02:06:23;101592.13;;;10.87
18713;BMP280;9485;49.386;8.674;2023-02-03T02:11:44;101617.72;;;10.84
18713;BMP280;9485;49.386;8.674;2023-02-03T02:17:22;101600.44;;;10.82
18713;BMP280;9485;49.386;8.674;2023-02-03T02:23:08;101605.47;;;10.78
18713;BMP280;9485;49.386;8.674;2023-02-03T02:28:57;101624.59;;;10.74
18713;BMP280;9485;49.386;8.674;2023-02-03T02:34:39;101602.16;;;10.70
18713;BMP280;9485;49.386;8.674;2023-02-03T02:40:15;101599.66;;;10.72
18713;BMP280;9485;49.386;8.674;2023-02-03T02:45:46;101596.50;;;10.70
18713;BMP280;9485;49.386;8.674;2023-02-03T02:51:13;101587.25;;;10.70
18713;BMP280;9485;49.386;8.674;2023-02-03T02:56:39;101592.91;;;10.70
18713;BMP280;9485;49.386;8.674;2023-02-03T03:02:01;101613.44;;;10.70
18713;BMP280;9485;49.386;8.674;2023-02-03T03:07:26;101628.72;;;10.73
18713;BMP280;9485;49.386;8.674;2023-02-03T03:12:54;101623.66;;;10.68
18713;BMP280;9485;49.386;8.674;2023-02-03T03:18:23;101632.59;;;10.66
18713;BMP280;9485;49.386;8.674;2023-02-03T03:23:50;101645.13;;;10.56
18713;BMP280;9485;49.386;8.674;2023-02-03T03:29:17;101657.69;;;10.47
18713;BMP280;9485;49.386;8.674;2023-02-03T03:34:39;101665.19;;;10.49
18713;BMP280;9485;49.386;8.674;2023-02-03T03:40:09;101658.63;;;10.52
18713;BMP280;9485;49.386;8.674;2023-02-03T03:45:39;101665.81;;;10.45
18713;BMP280;9485;49.386;8.674;2023-02-03T03:51:05;101644.63;;;10.40
18713;BMP280;9485;49.386;8.674;2023-02-03T03:56:35;101636.72;;;10.26
18713;BMP280;9485;49.386;8.674;2023-02-03T04:01:59;101639.97;;;10.16
18713;BMP280;9485;49.386;8.674;2023-02-03T04:07:22;101634.75;;;10.05
18713;BMP280;9485;49.386;8.674;2023-02-03T04:12:44;101638.59;;;9.90
18713;BMP280;9485;49.386;8.674;2023-02-03T04:18:05;101641.34;;;9.81
18713;BMP280;9485;49.386;8.674;2023-02-03T04:23:25;101640.06;;;9.73
18713;BMP280;9485;49.386;8.674;2023-02-03T04:28:47;101639.09;;;9.67
18713;BMP280;9485;49.386;8.674;2023-02-03T04:34:08;101632.47;;;9.61
18713;BMP280;9485;49.386;8.674;2023-02-03T04:39:28;101617.47;;;9.64
18713;BMP280;9485;49.386;8.674;2023-02-03T04:44:53;101638.44;;;9.63
18713;BMP280;9485;49.386;8.674;2023-02-03T04:50:14;101649.72;;;9.63
18713;BMP280;9485;49.386;8.674;2023-02-03T04:55:35;101644.38;;;9.65
18713;BMP280;9485;49.386;8.674;2023-02-03T05:00:57;101636.59;;;9.69
18713;BMP280;9485;49.386;8.674;2023-02-03T05:06:22;101625.94;;;9.73
18713;BMP280;9485;49.386;8.674;2023-02-03T05:11:43;101625.03;;;9.76
18713;BMP280;9485;49.386;8.674;2023-02-03T05:17:05;101624.56;;;9.77
18713;BMP280;9485;49.386;8.674;2023-02-03T05:22:25;101633.22;;;9.83
18713;BMP280;9485;49.386;8.674;2023-02-03T05:27:46;101630.75;;;9.85
18713;BMP280;9485;49.386;8.674;2023-02-03T05:33:08;101631.84;;;9.87
18713;BMP280;9485;49.386;8.674;2023-02-03T05:38:28;101637.22;;;9.94
18713;BMP280;9485;49.386;8.674;2023-02-03T05:43:48;101636.75;;;9.96
18713;BMP280;9485;49.386;8.674;2023-02-03T05:49:10;101630.66;;;9.97
18713;BMP280;9485;49.386;8.674;2023-02-03T05:54:31;101623.28;;;10.00
18713;BMP280;9485;49.386;8.674;2023-02-03T05:59:51;101629.25;;;10.02
18713;BMP280;9485;49.386;8.674;2023-02-03T06:05:13;101614.25;;;10.05
18713;BMP280;9485;49.386;8.674;2023-02-03T06:10:34;101617.97;;;10.02
18713;BMP280;9485;49.386;8.674;2023-02-03T06:15:56;101602.88;;;9.96
18713;BMP280;9485;49.386;8.674;2023-02-03T06:21:19;101588.56;;;9.90
18713;BMP280;9485;49.386;8.674;2023-02-03T06:26:40;101595.31;;;9.84
18713;BMP280;9485;49.386;8.674;2023-02-03T06:32:00;101589.81;;;9.80
18713;BMP280;9485;49.386;8.674;2023-02-03T06:37:22;101589.81;;;9.80
18713;BMP280;9485;49.386;8.674;2023-02-03T06:42:44;101595.44;;;9.80
18713;BMP280;9485;49.386;8.674;2023-02-03T06:48:06;101584.59;;;9.79
18713;BMP280;9485;49.386;8.674;2023-02-03T06:53:28;101605.47;;;9.81
18713;BMP280;9485;49.386;8.674;2023-02-03T06:58:48;101602.66;;;9.81
18713;BMP280;9485;49.386;8.674;2023-02-03T07:04:09;101613.16;;;9.81
18713;BMP280;9485;49.386;8.674;2023-02-03T07:09:31;101631.66;;;9.82
18713;BMP280;9485;49.386;8.674;2023-02-03T07:14:52;101632.91;;;9.81
18713;BMP280;9485;49.386;8.674;2023-02-03T07:20:12;101635.72;;;9.81
18713;BMP280;9485;49.386;8.674;2023-02-03T07:25:34;101626.63;;;9.77
18713;BMP280;9485;49.386;8.674;2023-02-03T07:30:55;101633.38;;;9.79
18713;BMP280;9485;49.386;8.674;2023-02-03T07:36:16;101641.69;;;9.83
18713;BMP280;9485;49.386;8.674;2023-02-03T07:41:38;101649.22;;;9.86
18713;BMP280;9485;49.386;8.674;2023-02-03T07:46:59;101651.91;;;9.89
18713;BMP280;9485;49.386;8.674;2023-02-03T07:52:20;101666.34;;;9.91
18713;BMP280;9485;49.386;8.674;2023-02-03T07:57:42;101679.84;;;9.96
18713;BMP280;9485;49.386;8.674;2023-02-03T08:03:03;101668.91;;;9.98
18713;BMP280;9485;49.386;8.674;2023-02-03T08:08:24;101672.84;;;10.01
18713;BMP280;9485;49.386;8.674;2023-02-03T08:13:46;101668.31;;;10.03
18713;BMP280;9485;49.386;8.674;2023-02-03T08:19:07;101671.78;;;10.07
18713;BMP280;9485;49.386;8.674;2023-02-03T08:24:27;101668.81;;;10.11
18713;BMP280;9485;49.386;8.674;2023-02-03T08:29:49;101682.47;;;10.12
18713;BMP280;9485;49.386;8.674;2023-02-03T08:35:10;101682.31;;;10.16
18713;BMP280;9485;49.386;8.674;2023-02-03T08:40:31;101663.09;;;10.23
18713;BMP280;9485;49.386;8.674;2023-02-03T08:45:53;101660.41;;;10.29
18713;BMP280;9485;49.386;8.674;2023-02-03T08:51:15;101641.31;;;10.33
18713;BMP280;9485;49.386;8.674;2023-02-03T08:56:38;101664.88;;;10.39
18713;BMP280;9485;49.386;8.674;2023-02-03T09:01:59;101659.41;;;10.44
18713;BMP280;9485;49.386;8.674;2023-02-03T09:07:20;101654.53;;;10.45
18713;BMP280;9485;49.386;8.674;2023-02-03T09:12:40;101658.59;;;10.44
18713;BMP280;9485;49.386;8.674;2023-02-03T09:18:02;101664.56;;;10.46
18713;BMP280;9485;49.386;8.674;2023-02-03T09:23:22;101660.81;;;10.48
18713;BMP280;9485;49.386;8.674;2023-02-03T09:28:43;101645.44;;;10.49
18713;BMP280;9485;49.386;8.674;2023-02-03T09:34:06;101647.19;;;10.56
18713;BMP280;9485;49.386;8.674;2023-02-03T09:39:28;101644.38;;;10.65
18713;BMP280;9485;49.386;8.674;2023-02-03T09:45:05;101648.00;;;10.74
18713;BMP280;9485;49.386;8.674;2023-02-03T09:50:34;101642.97;;;10.78
18713;BMP280;9485;49.386;8.674;2023-02-03T09:55:59;101661.69;;;10.85
18713;BMP280;9485;49.386;8.674;2023-02-03T10:01:24;101658.41;;;10.95
18713;BMP280;9485;49.386;8.674;2023-02-03T10:06:51;101643.47;;;11.04
18713;BMP280;9485;49.386;8.674;2023-02-03T10:12:44;101651.34;;;11.00
18713;BMP280;9485;49.386;8.674;2023-02-03T10:18:15;101669.84;;;10.92
18713;BMP280;9485;49.386;8.674;2023-02-03T10:23:41;101673.00;;;10.94
18713;BMP280;9485;49.386;8.674;2023-02-03T10:29:17;101668.91;;;11.04
18713;BMP280;9485;49.386;8.674;2023-02-03T10:34:42;101663.28;;;11.13
18713;BMP280;9485;49.386;8.674;2023-02-03T10:40:11;101667.84;;;11.10
18713;BMP280;9485;49.386;8.674;2023-02-03T10:45:37;101655.56;;;11.13
18713;BMP280;9485;49.386;8.674;2023-02-03T10:50:58;101650.41;;;11.12
18713;BMP280;9485;49.386;8.674;2023-02-03T10:56:25;101623.69;;;11.13
18713;BMP280;9485;49.386;8.674;2023-02-03T11:01:48;101623.69;;;11.13
18713;BMP280;9485;49.386;8.674;2023-02-03T11:07:24;101606.72;;;11.13
18713;BMP280;9485;49.386;8.674;2023-02-03T11:12:46;101608.75;;;11.12
18713;BMP280;9485;49.386;8.674;2023-02-03T11:18:32;101592.13;;;11.14
18713;BMP280;9485;49.386;8.674;2023-02-03T11:24:00;101607.97;;;11.12
18713;BMP280;9485;49.386;8.674;2023-02-03T11:29:25;101594.00;;;11.17
18713;BMP280;9485;49.386;8.674;2023-02-03T11:34:55;101599.19;;;11.19
18713;BMP280;9485;49.386;8.674;2023-02-03T11:40:25;101602.94;;;11.16
18713;BMP280;9485;49.386;8.674;2023-02-03T11:45:51;101607.81;;;11.15
18713;BMP280;9485;49.386;8.674;2023-02-03T11:51:23;101633.28;;;11.24
18713;BMP280;9485;49.386;8.674;2023-02-03T11:57:20;101638.13;;;11.32
18713;BMP280;9485;49.386;8.674;2023-02-03T12:03:20;101625.88;;;11.35
18713;BMP280;9485;49.386;8.674;2023-02-03T12:08:59;101619.75;;;11.37
18713;BMP280;9485;49.386;8.674;2023-02-03T12:14:40;101597.13;;;11.37
18713;BMP280;9485;49.386;8.674;2023-02-03T12:20:28;101579.06;;;11.34
18713;BMP280;9485;49.386;8.674;2023-02-03T12:26:08;101554.09;;;11.24
18713;BMP280;9485;49.386;8.674;2023-02-03T12:31:42;101547.53;;;11.18
18713;BMP280;9485;49.386;8.674;2023-02-03T12:37:11;101537.63;;;11.14
18713;BMP280;9485;49.386;8.674;2023-02-03T12:42:38;101541.38;;;11.11
18713;BMP280;9485;49.386;8.674;2023-02-03T12:48:05;101547.53;;;11.18
18713;BMP280;9485;49.386;8.674;2023-02-03T12:53:35;101544.50;;;11.30
18713;BMP280;9485;49.386;8.674;2023-02-03T12:59:03;101535.81;;;11.43
18713;BMP280;9485;49.386;8.674;2023-02-03T13:04:34;101517.88;;;11.55
18713;BMP280;9485;49.386;8.674;2023-02-03T13:10:02;101491.91;;;11.65
18713;BMP280;9485;49.386;8.674;2023-02-03T13:15:29;101476.47;;;11.75
18713;BMP280;9485;49.386;8.674;2023-02-03T13:20:51;101483.00;;;11.90
18713;BMP280;9485;49.386;8.674;2023-02-03T13:26:50;101478.06;;;11.99
18713;BMP280;9485;49.386;8.674;2023-02-03T13:32:32;101470.16;;;12.03
18713;BMP280;9485;49.386;8.674;2023-02-03T13:43:56;101480.84;;;12.08
18713;BMP280;9485;49.386;8.674;2023-02-03T13:49:24;101482.09;;;12.07
18713;BMP280;9485;49.386;8.674;2023-02-03T13:54:46;101470.47;;;12.05
18713;BMP280;9485;49.386;8.674;2023-02-03T14:06:57;101487.47;;;12.05
18713;BMP280;9485;49.386;8.674;2023-02-03T14:12:33;101495.94;;;12.05
18713;BMP280;9485;49.386;8.674;2023-02-03T14:17:59;101498.28;;;12.07
18713;BMP280;9485;49.386;8.674;2023-02-03T14:23:33;101515.00;;;12.05
18713;BMP280;9485;49.386;8.674;2023-02-03T14:28:54;101519.56;;;12.02
18713;BMP280;9485;49.386;8.674;2023-02-03T14:34:16;101511.19;;;12.08
18713;BMP280;9485;49.386;8.674;2023-02-03T14:40:27;101511.50;;;12.10
18713;BMP280;9485;49.386;8.674;2023-02-03T14:46:35;101507.88;;;12.09
18713;BMP280;9485;49.386;8.674;2023-02-03T14:52:22;101504.28;;;12.09
18713;BMP280;9485;49.386;8.674;2023-02-03T14:57:51;101494.81;;;12.12
18713;BMP280;9485;49.386;8.674;2023-02-03T15:03:26;101510.06;;;12.14
18713;BMP280;9485;49.386;8.674;2023-02-03T15:08:51;101509.09;;;12.17
18713;BMP280;9485;49.386;8.674;2023-02-03T15:14:22;101505.78;;;12.19
18713;BMP280;9485;49.386;8.674;2023-02-03T15:19:42;101515.38;;;12.21
18713;BMP280;9485;49.386;8.674;2023-02-03T15:25:16;101501.97;;;12.22
18713;BMP280;9485;49.386;8.674;2023-02-03T15:30:39;101511.72;;;12.21
18713;BMP280;9485;49.386;8.674;2023-02-03T15:36:34;101508.63;;;12.19
18713;BMP280;9485;49.386;8.674;2023-02-03T15:41:59;101506.16;;;12.12
18713;BMP280;9485;49.386;8.674;2023-02-03T15:47:28;101520.19;;;12.06
18713;BMP280;9485;49.386;8.674;2023-02-03T15:52:54;101514.69;;;12.03
18713;BMP280;9485;49.386;8.674;2023-02-03T15:58:23;101529.97;;;11.97
18713;BMP280;9485;49.386;8.674;2023-02-03T16:03:49;101545.56;;;11.92
18713;BMP280;9485;49.386;8.674;2023-02-03T16:09:30;101538.53;;;11.88
18713;BMP280;9485;49.386;8.674;2023-02-03T16:14:55;101537.91;;;11.84
18713;BMP280;9485;49.386;8.674;2023-02-03T16:20:24;101547.81;;;11.79
18713;BMP280;9485;49.386;8.674;2023-02-03T16:26:06;101539.50;;;11.76
18713;BMP280;9485;49.386;8.674;2023-02-03T16:31:43;101538.91;;;11.72
18713;BMP280;9485;49.386;8.674;2023-02-03T16:37:25;101554.63;;;11.73
18713;BMP280;9485;49.386;8.674;2023-02-03T16:43:08;101557.13;;;11.71
18713;BMP280;9485;49.386;8.674;2023-02-03T16:48:49;101567.38;;;11.68
18713;BMP280;9485;49.386;8.674;2023-02-03T16:54:28;101566.56;;;11.68
18713;BMP280;9485;49.386;8.674;2023-02-03T16:59:48;101573.81;;;11.69
18713;BMP280;9485;49.386;8.674;2023-02-03T17:05:10;101573.50;;;11.67
18713;BMP280;9485;49.386;8.674;2023-02-03T17:10:32;101583.53;;;11.68
18713;BMP280;9485;49.386;8.674;2023-02-03T17:15:53;101576.81;;;11.65
18713;BMP280;9485;49.386;8.674;2023-02-03T17:21:19;101584.50;;;11.65
18713;BMP280;9485;49.386;8.674;2023-02-03T17:26:40;101580.63;;;11.53
18713;BMP280;9485;49.386;8.674;2023-02-03T17:32:01;101593.34;;;11.40
18713;BMP280;9485;49.386;8.674;2023-02-03T17:37:23;101591.31;;;11.31
18713;BMP280;9485;49.386;8.674;2023-02-03T17:42:43;101586.31;;;11.26
18713;BMP280;9485;49.386;8.674;2023-02-03T17:48:04;101593.38;;;11.22
18713;BMP280;9485;49.386;8.674;2023-02-03T17:53:26;101574.22;;;11.17
18713;BMP280;9485;49.386;8.674;2023-02-03T17:58:46;101578.47;;;11.13
18713;BMP280;9485;49.386;8.674;2023-02-03T18:04:08;101571.72;;;11.10
18713;BMP280;9485;49.386;8.674;2023-02-03T18:09:30;101581.78;;;11.11
18713;BMP280;9485;49.386;8.674;2023-02-03T18:14:51;101591.50;;;11.10
18713;BMP280;9485;49.386;8.674;2023-02-03T18:20:12;101589.78;;;11.13
18713;BMP280;9485;49.386;8.674;2023-02-03T18:25:35;101588.81;;;11.16
18713;BMP280;9485;49.386;8.674;2023-02-03T18:30:59;101575.31;;;11.20
18713;BMP280;9485;49.386;8.674;2023-02-03T18:36:22;101576.72;;;11.24
18713;BMP280;9485;49.386;8.674;2023-02-03T18:41:44;101596.19;;;11.31
18713;BMP280;9485;49.386;8.674;2023-02-03T18:47:04;101577.31;;;11.37
18713;BMP280;9485;49.386;8.674;2023-02-03T18:52:26;101593.16;;;11.43
18713;BMP280;9485;49.386;8.674;2023-02-03T18:57:48;101588.47;;;11.49
18713;BMP280;9485;49.386;8.674;2023-02-03T19:03:09;101580.63;;;11.53
18713;BMP280;9485;49.386;8.674;2023-02-03T19:08:29;101606.22;;;11.59
18713;BMP280;9485;49.386;8.674;2023-02-03T19:13:51;101603.69;;;11.61
18713;BMP280;9485;49.386;8.674;2023-02-03T19:19:12;101608.41;;;11.64
18713;BMP280;9485;49.386;8.674;2023-02-03T19:24:33;101618.47;;;11.65
18713;BMP280;9485;49.386;8.674;2023-02-03T19:29:55;101622.88;;;11.66
18713;BMP280;9485;49.386;8.674;2023-02-03T19:35:15;101626.78;;;11.68
18713;BMP280;9485;49.386;8.674;2023-02-03T19:40:36;101636.06;;;11.69
18713;BMP280;9485;49.386;8.674;2023-02-03T19:46:01;101623.97;;;11.68
18713;BMP280;9485;49.386;8.674;2023-02-03T19:51:21;101625.06;;;11.71
18713;BMP280;9485;49.386;8.674;2023-02-03T19:56:42;101629.47;;;11.72
18713;BMP280;9485;49.386;8.674;2023-02-03T20:02:05;101636.84;;;11.69
18713;BMP280;9485;49.386;8.674;2023-02-03T20:07:26;101631.03;;;11.73
18713;BMP280;9485;49.386;8.674;2023-02-03T20:12:50;101634.47;;;11.77
18713;BMP280;9485;49.386;8.674;2023-02-03T20:18:12;101628.31;;;11.78
18713;BMP280;9485;49.386;8.674;2023-02-03T20:23:33;101639.47;;;11.82
18713;BMP280;9485;49.386;8.674;2023-02-03T20:28:53;101650.19;;;11.87
18713;BMP280;9485;49.386;8.674;2023-02-03T20:34:15;101643.53;;;11.90
18713;BMP280;9485;49.386;8.674;2023-02-03T20:39:36;101650.47;;;11.89
18713;BMP280;9485;49.386;8.674;2023-02-03T20:44:56;101656.44;;;11.91
18713;BMP280;9485;49.386;8.674;2023-02-03T20:50:20;101665.09;;;11.96
18713;BMP280;9485;49.386;8.674;2023-02-03T20:55:41;101663.66;;;12.00
18713;BMP280;9485;49.386;8.674;2023-02-03T21:01:05;101667.09;;;12.04
18713;BMP280;9485;49.386;8.674;2023-02-03T21:06:33;101663.78;;;12.06
18713;BMP280;9485;49.386;8.674;2023-02-03T21:11:54;101673.84;;;12.07
18713;BMP280;9485;49.386;8.674;2023-02-03T21:17:17;101671.00;;;12.07
18713;BMP280;9485;49.386;8.674;2023-02-03T21:22:39;101677.31;;;12.11
18713;BMP280;9485;49.386;8.674;2023-02-03T21:28:00;101674.00;;;12.12
18713;BMP280;9485;49.386;8.674;2023-02-03T21:33:33;101672.41;;;12.11
18713;BMP280;9485;49.386;8.674;2023-02-03T21:38:57;101670.38;;;12.12
18713;BMP280;9485;49.386;8.674;2023-02-03T21:44:30;101687.38;;;12.12
18713;BMP280;9485;49.386;8.674;2023-02-03T21:49:51;101684.53;;;12.12
18713;BMP280;9485;49.386;8.674;2023-02-03T21:55:15;101679.97;;;12.14
18713;BMP280;9485;49.386;8.674;2023-02-03T22:00:40;101685.91;;;12.16
18713;BMP280;9485;49.386;8.674;2023-02-03T22:06:18;101678.22;;;12.17
18713;BMP280;9485;49.386;8.674;2023-02-03T22:11:42;101679.47;;;12.16
18713;BMP280;9485;49.386;8.674;2023-02-03T22:17:03;101697.72;;;12.15
18713;BMP280;9485;49.386;8.674;2023-02-03T22:22:24;101690.03;;;12.15
18713;BMP280;9485;49.386;8.674;2023-02-03T22:27:45;101705.75;;;12.16
18713;BMP280;9485;49.386;8.674;2023-02-03T22:33:06;101708.75;;;12.13
18713;BMP280;9485;49.386;8.674;2023-02-03T22:38:26;101721.47;;;12.17
18713;BMP280;9485;49.386;8.674;2023-02-03T22:43:48;101729.53;;;12.19
18713;BMP280;9485;49.386;8.674;2023-02-03T22:49:08;101736.28;;;12.21
18713;BMP280;9485;49.386;8.674;2023-02-03T22:54:29;101740.19;;;12.24
18713;BMP280;9485;49.386;8.674;2023-02-03T22:59:51;101748.53;;;12.27
18713;BMP280;9485;49.386;8.674;2023-02-03T23:05:12;101752.94;;;12.28
18713;BMP280;9485;49.386;8.674;2023-02-03T23:10:33;101753.38;;;12.27
18713;BMP280;9485;49.386;8.674;2023-02-03T23:15:54;101763.00;;;12.29
18713;BMP280;9485;49.386;8.674;2023-02-03T23:21:15;101775.59;;;12.28
18713;BMP280;9485;49.386;8.674;2023-02-03T23:26:35;101767.69;;;12.32
18713;BMP280;9485;49.386;8.674;2023-02-03T23:31:58;101759.19;;;12.32
18713;BMP280;9485;49.386;8.674;2023-02-03T23:37:18;101773.84;;;12.31
18713;BMP280;9485;49.386;8.674;2023-02-03T23:42:39;101768.34;;;12.27
18713;BMP280;9485;49.386;8.674;2023-02-03T23:48:00;101766.16;;;12.22
18713;BMP280;9485;49.386;8.674;2023-02-03T23:53:21;101787.53;;;12.23
18713;BMP280;9485;49.386;8.674;2023-02-03T23:58:42;101772.00;;;12.19
